createdAt,value
2018-07-30T00:00:51.932Z,24.89
2018-07-30T00:01:51.780Z,24.86
2018-07-30T00:02:51.939Z,24.85
2018-07-30T00:03:51.766Z,24.82
2018-07-30T00:04:51.785Z,24.79
2018-07-30T00:05:51.764Z,24.81
2018-07-30T00:06:51.788Z,24.78
2018-07-30T00:07:51.773Z,24.77
2018-07-30T00:08:51.799Z,24.77
2018-07-30T00:09:51.785Z,24.75
2018-07-30T00:10:51.794Z,24.75
2018-07-30T00:11:51.787Z,24.71
2018-07-30T00:12:52.249Z,24.67
2018-07-30T00:13:51.912Z,24.65
2018-07-30T00:14:51.808Z,24.6
2018-07-30T00:15:51.944Z,24.57
2018-07-30T00:16:51.812Z,24.55
2018-07-30T00:17:51.817Z,24.54
2018-07-30T00:18:51.817Z,24.51
2018-07-30T00:19:52.161Z,24.51
2018-07-30T00:20:52.284Z,24.53
2018-07-30T00:21:51.891Z,24.51
2018-07-30T00:22:51.795Z,24.53
2018-07-30T00:23:51.793Z,24.53
2018-07-30T00:24:51.964Z,24.5
2018-07-30T00:25:51.932Z,24.5
2018-07-30T00:26:51.970Z,24.47
2018-07-30T00:27:52.213Z,24.44
2018-07-30T00:28:51.870Z,24.47
2018-07-30T00:29:52.045Z,24.46
2018-07-30T00:30:51.851Z,24.42
2018-07-30T00:31:51.862Z,24.4
2018-07-30T00:32:51.984Z,24.4
2018-07-30T00:33:51.810Z,24.35
2018-07-30T00:34:52.155Z,24.36
2018-07-30T00:35:52.472Z,24.35
2018-07-30T00:36:52.057Z,24.33
2018-07-30T00:37:51.831Z,24.35
2018-07-30T00:38:51.822Z,24.33
2018-07-30T00:39:51.830Z,24.32
2018-07-30T00:40:51.866Z,24.33
2018-07-30T00:41:51.815Z,24.32
2018-07-30T00:42:51.856Z,24.33
2018-07-30T00:43:51.842Z,24.3
2018-07-30T00:44:51.929Z,24.3
2018-07-30T00:45:52.464Z,24.29
2018-07-30T00:46:51.923Z,24.29
2018-07-30T00:47:51.902Z,24.29
2018-07-30T00:48:51.972Z,24.27
2018-07-30T00:49:51.846Z,24.29
2018-07-30T00:50:51.835Z,24.26
2018-07-30T00:51:51.957Z,24.26
2018-07-30T00:52:52.011Z,24.23
2018-07-30T00:53:52.061Z,24.2
2018-07-30T00:54:52.028Z,24.19
2018-07-30T00:55:52.020Z,24.16
2018-07-30T00:56:52.188Z,24.16
2018-07-30T00:57:52.115Z,24.16
2018-07-30T00:58:51.949Z,24.17
2018-07-30T00:59:51.919Z,24.15
2018-07-30T01:00:51.989Z,24.15
2018-07-30T01:01:51.919Z,24.12
2018-07-30T01:02:51.916Z,24.1
2018-07-30T01:03:51.992Z,24.08
2018-07-30T01:04:52.033Z,24.09
2018-07-30T01:05:52.366Z,24.09
2018-07-30T01:06:51.962Z,24.09
2018-07-30T01:07:51.961Z,24.08
2018-07-30T01:08:52.080Z,24.08
2018-07-30T01:09:51.944Z,24.09
2018-07-30T01:10:51.941Z,24.03
2018-07-30T01:11:51.921Z,24.02
2018-07-30T01:12:51.903Z,24.03
2018-07-30T01:13:51.896Z,24.01
2018-07-30T01:14:52.012Z,24.01
2018-07-30T01:15:51.862Z,23.99
2018-07-30T01:16:51.904Z,23.99
2018-07-30T01:17:51.890Z,23.98
2018-07-30T01:18:51.874Z,23.96
2018-07-30T01:19:51.951Z,23.95
2018-07-30T01:20:51.877Z,23.93
2018-07-30T01:21:52.131Z,23.96
2018-07-30T01:22:51.897Z,23.96
2018-07-30T01:23:51.901Z,23.95
2018-07-30T01:24:51.896Z,23.96
2018-07-30T01:25:51.937Z,23.93
2018-07-30T01:26:51.984Z,23.93
2018-07-30T01:27:51.926Z,23.89
2018-07-30T01:28:51.909Z,23.91
2018-07-30T01:29:51.894Z,23.92
2018-07-30T01:30:51.916Z,23.92
2018-07-30T01:31:51.957Z,23.87
2018-07-30T01:32:51.894Z,23.84
2018-07-30T01:33:51.938Z,23.88
2018-07-30T01:34:51.967Z,23.84
2018-07-30T01:35:51.896Z,23.85
2018-07-30T01:36:52.103Z,23.84
2018-07-30T01:37:51.998Z,23.81
2018-07-30T01:38:52.043Z,23.8
2018-07-30T01:39:51.906Z,23.78
2018-07-30T01:40:51.902Z,23.75
2018-07-30T01:41:52.061Z,23.75
2018-07-30T01:42:51.896Z,23.74
2018-07-30T01:43:51.952Z,23.73
2018-07-30T01:44:52.086Z,23.73
2018-07-30T01:45:51.958Z,23.71
2018-07-30T01:46:52.061Z,23.71
2018-07-30T01:47:51.947Z,23.68
2018-07-30T01:48:51.905Z,23.68
2018-07-30T01:49:51.909Z,23.67
2018-07-30T01:50:51.956Z,23.64
2018-07-30T01:51:51.920Z,23.64
2018-07-30T01:52:52.009Z,23.62
2018-07-30T01:53:52.056Z,23.62
2018-07-30T01:54:51.949Z,23.61
2018-07-30T01:55:51.974Z,23.6
2018-07-30T01:56:52.039Z,23.57
2018-07-30T01:57:52.309Z,23.58
2018-07-30T01:58:52.176Z,23.57
2018-07-30T01:59:51.921Z,23.56
2018-07-30T02:00:51.934Z,23.54
2018-07-30T02:01:51.971Z,23.57
2018-07-30T02:02:51.996Z,23.53
2018-07-30T02:03:51.975Z,23.53
2018-07-30T02:04:52.126Z,23.53
2018-07-30T02:05:51.948Z,23.51
2018-07-30T02:06:51.927Z,23.5
2018-07-30T02:07:51.970Z,23.51
2018-07-30T02:08:51.944Z,23.5
2018-07-30T02:09:51.992Z,23.5
2018-07-30T02:10:51.944Z,23.48
2018-07-30T02:11:51.956Z,23.47
2018-07-30T02:12:52.000Z,23.46
2018-07-30T02:13:51.979Z,23.44
2018-07-30T02:14:51.935Z,23.44
2018-07-30T02:15:52.020Z,23.41
2018-07-30T02:16:52.148Z,23.4
2018-07-30T02:17:51.965Z,23.39
2018-07-30T02:18:52.007Z,23.37
2018-07-30T02:19:51.955Z,23.39
2018-07-30T02:20:51.960Z,23.36
2018-07-30T02:21:51.990Z,23.36
2018-07-30T02:22:52.004Z,23.33
2018-07-30T02:23:52.117Z,23.33
2018-07-30T02:24:51.996Z,23.33
2018-07-30T02:25:52.168Z,23.34
2018-07-30T02:26:51.957Z,23.34
2018-07-30T02:27:52.005Z,23.36
2018-07-30T02:28:51.966Z,23.32
2018-07-30T02:29:51.973Z,23.34
2018-07-30T02:30:51.966Z,23.32
2018-07-30T02:31:51.966Z,23.32
2018-07-30T02:32:51.967Z,23.27
2018-07-30T02:33:51.962Z,23.07
2018-07-30T02:34:51.958Z,23.07
2018-07-30T02:35:51.974Z,23.07
2018-07-30T02:36:51.960Z,23.07
2018-07-30T02:37:51.968Z,23.06
2018-07-30T02:38:51.987Z,23.07
2018-07-30T02:39:51.984Z,23.07
2018-07-30T02:40:51.980Z,23.03
2018-07-30T02:41:51.959Z,23.03
2018-07-30T02:42:51.973Z,23.03
2018-07-30T02:43:51.993Z,23.06
2018-07-30T02:44:51.985Z,23.05
2018-07-30T02:45:51.989Z,23.06
2018-07-30T02:46:52.002Z,23.03
2018-07-30T02:47:52.044Z,23.05
2018-07-30T02:48:52.010Z,23.05
2018-07-30T02:49:51.969Z,23.03
2018-07-30T02:50:52.054Z,23.01
2018-07-30T02:51:52.010Z,23.02
2018-07-30T02:52:52.026Z,23.01
2018-07-30T02:53:51.995Z,22.99
2018-07-30T02:54:52.008Z,22.98
2018-07-30T02:55:51.999Z,22.94
2018-07-30T02:56:52.020Z,22.94
2018-07-30T02:57:52.037Z,22.91
2018-07-30T02:58:52.052Z,22.91
2018-07-30T02:59:52.017Z,22.89
2018-07-30T03:00:52.009Z,22.88
2018-07-30T03:01:52.008Z,22.86
2018-07-30T03:02:52.003Z,22.88
2018-07-30T03:03:52.004Z,22.88
2018-07-30T03:04:52.033Z,22.86
2018-07-30T03:05:52.072Z,22.85
2018-07-30T03:06:52.034Z,22.85
2018-07-30T03:07:52.208Z,22.81
2018-07-30T03:08:52.076Z,22.82
2018-07-30T03:09:52.031Z,22.82
2018-07-30T03:10:52.122Z,22.81
2018-07-30T03:11:52.023Z,22.84
2018-07-30T03:12:52.022Z,22.82
2018-07-30T03:13:52.173Z,22.81
2018-07-30T03:14:52.178Z,22.79
2018-07-30T03:15:52.044Z,22.81
2018-07-30T03:16:52.019Z,22.79
2018-07-30T03:17:52.107Z,22.75
2018-07-30T03:18:52.032Z,22.74
2018-07-30T03:19:52.033Z,22.75
2018-07-30T03:20:52.107Z,22.78
2018-07-30T03:21:52.022Z,22.78
2018-07-30T03:22:52.013Z,22.76
2018-07-30T03:23:52.171Z,22.74
2018-07-30T03:24:52.132Z,22.75
2018-07-30T03:25:52.249Z,22.78
2018-07-30T03:26:52.087Z,22.75
2018-07-30T03:27:52.084Z,22.75
2018-07-30T03:28:52.834Z,22.75
2018-07-30T03:29:52.025Z,22.74
2018-07-30T03:30:52.035Z,22.74
2018-07-30T03:31:52.080Z,22.75
2018-07-30T03:32:52.209Z,22.67
2018-07-30T03:33:52.031Z,22.65
2018-07-30T03:34:52.125Z,22.67
2018-07-30T03:35:52.048Z,22.67
2018-07-30T03:36:52.208Z,22.61
2018-07-30T03:37:52.121Z,22.58
2018-07-30T03:38:52.467Z,22.56
2018-07-30T03:39:52.094Z,22.57
2018-07-30T03:40:52.039Z,22.51
2018-07-30T03:41:52.056Z,22.53
2018-07-30T03:42:52.141Z,22.51
2018-07-30T03:43:52.072Z,22.5
2018-07-30T03:44:52.067Z,22.4
2018-07-30T03:45:52.048Z,22.4
2018-07-30T03:46:52.079Z,22.36
2018-07-30T03:47:52.151Z,22.39
2018-07-30T03:48:52.112Z,22.39
2018-07-30T03:49:52.093Z,22.36
2018-07-30T03:50:52.519Z,22.39
2018-07-30T03:51:52.069Z,22.37
2018-07-30T03:52:52.060Z,22.37
2018-07-30T03:53:52.063Z,22.4
2018-07-30T03:54:52.072Z,22.4
2018-07-30T03:55:52.062Z,22.39
2018-07-30T03:56:52.058Z,22.4
2018-07-30T03:57:52.190Z,22.39
2018-07-30T03:58:52.071Z,22.39
2018-07-30T03:59:52.202Z,22.4
2018-07-30T04:00:52.598Z,22.4
2018-07-30T04:01:52.104Z,22.4
2018-07-30T04:02:52.084Z,22.39
2018-07-30T04:03:52.105Z,22.36
2018-07-30T04:04:52.077Z,22.34
2018-07-30T04:05:52.343Z,22.31
2018-07-30T04:06:52.099Z,22.3
2018-07-30T04:07:52.264Z,22.33
2018-07-30T04:08:52.182Z,22.31
2018-07-30T04:09:52.302Z,22.33
2018-07-30T04:10:52.596Z,22.33
2018-07-30T04:11:52.106Z,22.34
2018-07-30T04:12:52.149Z,22.31
2018-07-30T04:13:52.104Z,22.33
2018-07-30T04:14:52.112Z,22.34
2018-07-30T04:15:52.121Z,22.34
2018-07-30T04:16:52.494Z,22.34
2018-07-30T04:17:52.087Z,22.37
2018-07-30T04:18:52.165Z,22.34
2018-07-30T04:19:52.115Z,22.36
2018-07-30T04:20:52.282Z,22.34
2018-07-30T04:21:52.097Z,22.36
2018-07-30T04:22:52.121Z,22.37
2018-07-30T04:23:52.201Z,22.37
2018-07-30T04:24:52.103Z,22.39
2018-07-30T04:25:52.101Z,22.34
2018-07-30T04:26:52.098Z,22.34
2018-07-30T04:27:52.158Z,22.36
2018-07-30T04:28:52.121Z,22.34
2018-07-30T04:29:52.453Z,22.34
2018-07-30T04:30:52.556Z,22.37
2018-07-30T04:31:52.155Z,22.36
2018-07-30T04:32:52.151Z,22.37
2018-07-30T04:33:52.238Z,22.36
2018-07-30T04:34:52.272Z,22.36
2018-07-30T04:35:52.155Z,22.34
2018-07-30T04:36:52.112Z,22.33
2018-07-30T04:37:52.534Z,22.3
2018-07-30T04:38:52.224Z,22.3
2018-07-30T04:39:52.240Z,22.29
2018-07-30T04:40:52.231Z,22.26
2018-07-30T04:41:52.219Z,22.3
2018-07-30T04:42:52.181Z,22.27
2018-07-30T04:43:52.538Z,22.3
2018-07-30T04:44:52.133Z,22.31
2018-07-30T04:45:52.160Z,22.31
2018-07-30T04:46:52.108Z,22.33
2018-07-30T04:47:52.362Z,22.33
2018-07-30T04:48:52.263Z,22.33
2018-07-30T04:49:52.607Z,22.33
2018-07-30T04:50:52.311Z,22.33
2018-07-30T04:51:52.260Z,22.33
2018-07-30T04:52:52.138Z,22.31
2018-07-30T04:53:52.128Z,22.36
2018-07-30T04:54:52.198Z,22.39
2018-07-30T04:55:52.352Z,22.39
2018-07-30T04:56:52.275Z,22.37
2018-07-30T04:57:52.243Z,22.31
2018-07-30T04:58:52.252Z,22.34
2018-07-30T04:59:52.132Z,22.34
2018-07-30T05:00:52.395Z,22.34
2018-07-30T05:01:52.180Z,22.34
2018-07-30T05:02:52.124Z,22.36
2018-07-30T05:03:52.456Z,22.4
2018-07-30T05:04:52.158Z,22.41
2018-07-30T05:05:52.143Z,22.4
2018-07-30T05:06:52.138Z,22.41
2018-07-30T05:07:52.147Z,22.43
2018-07-30T05:08:52.150Z,22.41
2018-07-30T05:09:52.175Z,22.46
2018-07-30T05:10:52.144Z,22.44
2018-07-30T05:11:52.163Z,22.46
2018-07-30T05:12:52.177Z,22.48
2018-07-30T05:13:52.170Z,22.47
2018-07-30T05:14:52.229Z,22.5
2018-07-30T05:15:52.201Z,22.51
2018-07-30T05:16:52.358Z,22.54
2018-07-30T05:17:52.252Z,22.57
2018-07-30T05:18:52.201Z,22.54
2018-07-30T05:19:52.146Z,22.57
2018-07-30T05:20:52.175Z,22.58
2018-07-30T05:21:52.356Z,22.6
2018-07-30T05:22:52.243Z,22.61
2018-07-30T05:23:52.260Z,22.63
2018-07-30T05:24:52.209Z,22.63
2018-07-30T05:25:52.179Z,22.63
2018-07-30T05:26:52.221Z,22.63
2018-07-30T05:27:52.174Z,22.64
2018-07-30T05:28:52.165Z,22.64
2018-07-30T05:29:52.301Z,22.64
2018-07-30T05:30:52.187Z,22.65
2018-07-30T05:31:52.252Z,22.64
2018-07-30T05:32:52.157Z,22.65
2018-07-30T05:33:52.325Z,22.67
2018-07-30T05:34:52.231Z,22.71
2018-07-30T05:35:52.919Z,22.72
2018-07-30T05:36:56.127Z,22.71
2018-07-30T05:37:52.200Z,22.74
2018-07-30T05:38:52.237Z,22.74
2018-07-30T05:39:52.343Z,22.79
2018-07-30T05:40:52.210Z,22.81
2018-07-30T05:41:52.327Z,22.84
2018-07-30T05:42:52.526Z,22.86
2018-07-30T05:43:52.231Z,22.86
2018-07-30T05:44:52.374Z,22.89
2018-07-30T05:45:52.666Z,22.91
2018-07-30T05:46:52.233Z,22.95
2018-07-30T05:47:52.212Z,22.98
2018-07-30T05:48:52.196Z,23.01
2018-07-30T05:49:52.362Z,23.01
2018-07-30T05:50:52.202Z,23.06
2018-07-30T05:51:52.410Z,23.02
2018-07-30T05:52:52.201Z,23.03
2018-07-30T05:53:52.223Z,23.05
2018-07-30T05:54:52.266Z,23.09
2018-07-30T05:55:52.655Z,23.11
2018-07-30T05:56:52.422Z,23.13
2018-07-30T05:57:52.261Z,23.15
2018-07-30T05:58:52.293Z,23.15
2018-07-30T05:59:52.529Z,23.19
2018-07-30T06:00:52.341Z,23.22
2018-07-30T06:01:52.276Z,23.23
2018-07-30T06:02:52.216Z,23.26
2018-07-30T06:03:52.222Z,23.29
2018-07-30T06:04:52.239Z,23.33
2018-07-30T06:05:52.738Z,23.34
2018-07-30T06:06:52.371Z,23.36
2018-07-30T06:07:52.252Z,23.37
2018-07-30T06:08:52.408Z,23.4
2018-07-30T06:09:52.241Z,23.44
2018-07-30T06:10:52.337Z,23.48
2018-07-30T06:11:52.386Z,23.51
2018-07-30T06:12:52.432Z,23.54
2018-07-30T06:13:52.499Z,23.57
2018-07-30T06:14:52.235Z,23.58
2018-07-30T06:15:52.722Z,23.61
2018-07-30T06:16:52.254Z,23.68
2018-07-30T06:17:52.257Z,23.68
2018-07-30T06:18:52.298Z,23.73
2018-07-30T06:19:52.259Z,23.78
2018-07-30T06:20:52.604Z,23.77
2018-07-30T06:21:52.272Z,23.8
2018-07-30T06:22:52.239Z,23.78
2018-07-30T06:23:52.277Z,23.77
2018-07-30T06:24:52.246Z,23.8
2018-07-30T06:25:52.234Z,23.77
2018-07-30T06:26:52.245Z,23.77
2018-07-30T06:27:52.285Z,23.77
2018-07-30T06:28:52.292Z,23.75
2018-07-30T06:29:52.316Z,23.74
2018-07-30T06:30:52.521Z,23.74
2018-07-30T06:31:52.506Z,23.74
2018-07-30T06:32:52.262Z,23.77
2018-07-30T06:33:52.295Z,23.75
2018-07-30T06:34:52.359Z,23.73
2018-07-30T06:35:52.253Z,23.77
2018-07-30T06:36:52.270Z,23.78
2018-07-30T06:37:52.257Z,23.8
2018-07-30T06:38:52.309Z,23.84
2018-07-30T06:39:52.290Z,23.87
2018-07-30T06:40:52.268Z,23.89
2018-07-30T06:41:52.399Z,23.92
2018-07-30T06:42:52.616Z,23.98
2018-07-30T06:43:52.267Z,24.02
2018-07-30T06:44:53.680Z,24.03
2018-07-30T06:45:52.507Z,24.05
2018-07-30T06:46:52.269Z,24.09
2018-07-30T06:47:52.663Z,24.1
2018-07-30T06:48:52.299Z,24.15
2018-07-30T06:49:52.328Z,24.16
2018-07-30T06:50:52.294Z,24.2
2018-07-30T06:51:52.335Z,24.23
2018-07-30T06:52:52.341Z,24.23
2018-07-30T06:53:52.287Z,24.24
2018-07-30T06:54:52.361Z,24.3
2018-07-30T06:55:52.631Z,24.32
2018-07-30T06:56:52.318Z,24.36
2018-07-30T06:57:52.299Z,24.36
2018-07-30T06:58:52.352Z,24.42
2018-07-30T06:59:52.292Z,24.43
2018-07-30T07:00:52.310Z,24.48
2018-07-30T07:01:52.430Z,24.5
2018-07-30T07:02:52.345Z,24.53
2018-07-30T07:03:52.317Z,24.53
2018-07-30T07:04:52.330Z,24.55
2018-07-30T07:05:52.612Z,24.58
2018-07-30T07:06:52.479Z,24.6
2018-07-30T07:07:52.293Z,24.63
2018-07-30T07:08:52.299Z,24.68
2018-07-30T07:09:52.496Z,24.68
2018-07-30T07:10:52.399Z,24.67
2018-07-30T07:11:52.435Z,24.71
2018-07-30T07:12:52.384Z,24.72
2018-07-30T07:13:52.343Z,24.72
2018-07-30T07:14:52.463Z,24.75
2018-07-30T07:15:52.301Z,24.79
2018-07-30T07:16:52.616Z,24.85
2018-07-30T07:17:52.372Z,24.86
2018-07-30T07:18:52.412Z,24.89
2018-07-30T07:19:52.301Z,24.92
2018-07-30T07:20:52.353Z,24.98
2018-07-30T07:21:52.694Z,25.02
2018-07-30T07:22:52.397Z,24.97
2018-07-30T07:23:52.410Z,24.95
2018-07-30T07:24:52.320Z,25.01
2018-07-30T07:25:52.507Z,25.05
2018-07-30T07:26:52.459Z,25.08
2018-07-30T07:27:52.488Z,25.1
2018-07-30T07:28:52.318Z,25.15
2018-07-30T07:29:52.329Z,25.15
2018-07-30T07:30:52.362Z,25.17
2018-07-30T07:31:52.368Z,25.2
2018-07-30T07:32:52.448Z,25.26
2018-07-30T07:33:52.375Z,25.27
2018-07-30T07:34:52.841Z,25.33
2018-07-30T07:35:52.357Z,25.34
2018-07-30T07:36:52.855Z,25.37
2018-07-30T07:37:52.348Z,25.41
2018-07-30T07:38:52.378Z,25.46
2018-07-30T07:39:52.370Z,25.5
2018-07-30T07:40:52.381Z,25.54
2018-07-30T07:41:52.371Z,25.57
2018-07-30T07:42:52.378Z,25.61
2018-07-30T07:43:52.820Z,25.6
2018-07-30T07:44:52.502Z,25.67
2018-07-30T07:45:52.365Z,25.65
2018-07-30T07:46:52.357Z,25.68
2018-07-30T07:47:52.645Z,25.64
2018-07-30T07:48:52.396Z,25.65
2018-07-30T07:49:52.385Z,25.65
2018-07-30T07:50:53.546Z,25.72
2018-07-30T07:51:52.464Z,25.71
2018-07-30T07:52:52.363Z,25.78
2018-07-30T07:53:52.347Z,25.85
2018-07-30T07:54:52.386Z,25.87
2018-07-30T07:55:52.395Z,25.84
2018-07-30T07:56:52.360Z,25.89
2018-07-30T07:57:52.371Z,25.96
2018-07-30T07:58:52.400Z,25.98
2018-07-30T07:59:52.374Z,26.02
2018-07-30T08:00:52.391Z,26.05
2018-07-30T08:01:52.513Z,26.12
2018-07-30T08:02:52.377Z,26.17
2018-07-30T08:03:52.659Z,26.25
2018-07-30T08:04:52.379Z,26.27
2018-07-30T08:05:52.380Z,26.34
2018-07-30T08:06:52.467Z,26.37
2018-07-30T08:07:52.385Z,26.42
2018-07-30T08:08:58.007Z,26.46
2018-07-30T08:09:52.855Z,26.47
2018-07-30T08:10:52.624Z,26.48
2018-07-30T08:11:52.393Z,26.47
2018-07-30T08:12:52.954Z,26.4
2018-07-30T08:13:52.458Z,26.37
2018-07-30T08:14:52.415Z,26.37
2018-07-30T08:15:52.400Z,26.4
2018-07-30T08:16:52.689Z,26.4
2018-07-30T08:17:52.420Z,26.44
2018-07-30T08:18:52.408Z,26.47
2018-07-30T08:19:52.437Z,26.5
2018-07-30T08:20:52.472Z,26.55
2018-07-30T08:21:52.451Z,26.62
2018-07-30T08:22:52.507Z,26.62
2018-07-30T08:23:52.496Z,26.71
2018-07-30T08:24:52.529Z,26.72
2018-07-30T08:25:52.430Z,26.72
2018-07-30T08:26:52.396Z,26.77
2018-07-30T08:27:52.373Z,26.79
2018-07-30T08:28:52.406Z,26.88
2018-07-30T08:29:52.694Z,26.94
2018-07-30T08:30:52.411Z,26.99
2018-07-30T08:31:52.417Z,27.06
2018-07-30T08:32:52.873Z,27.12
2018-07-30T08:33:52.587Z,27.22
2018-07-30T08:34:52.700Z,27.23
2018-07-30T08:35:52.530Z,27.26
2018-07-30T08:36:52.417Z,27.33
2018-07-30T08:37:52.456Z,27.36
2018-07-30T08:38:52.425Z,27.43
2018-07-30T08:39:52.630Z,27.43
2018-07-30T08:40:52.548Z,27.4
2018-07-30T08:41:52.493Z,27.33
2018-07-30T08:42:52.527Z,27.32
2018-07-30T08:43:52.649Z,27.3
2018-07-30T08:44:52.657Z,27.36
2018-07-30T08:45:52.532Z,27.4
2018-07-30T08:46:52.673Z,27.49
2018-07-30T08:47:52.673Z,27.58
2018-07-30T08:48:53.004Z,27.62
2018-07-30T08:49:52.463Z,27.68
2018-07-30T08:50:52.560Z,27.71
2018-07-30T08:51:52.589Z,27.74
2018-07-30T08:52:52.741Z,27.77
2018-07-30T08:53:52.623Z,27.7
2018-07-30T08:54:52.637Z,27.7
2018-07-30T08:55:52.449Z,27.74
2018-07-30T08:56:52.688Z,27.79
2018-07-30T08:57:52.435Z,27.85
2018-07-30T08:58:52.557Z,27.91
2018-07-30T08:59:52.436Z,27.92
2018-07-30T09:00:52.487Z,27.98
2018-07-30T09:01:52.472Z,28.02
2018-07-30T09:02:52.460Z,28.06
2018-07-30T09:03:52.448Z,28.11
2018-07-30T09:04:52.439Z,28.13
2018-07-30T09:05:52.452Z,28.19
2018-07-30T09:06:52.498Z,28.27
2018-07-30T09:07:52.471Z,28.33
2018-07-30T09:08:52.640Z,28.39
2018-07-30T09:09:52.476Z,28.41
2018-07-30T09:10:52.460Z,28.46
2018-07-30T09:11:52.447Z,28.52
2018-07-30T09:12:53.575Z,28.57
2018-07-30T09:13:52.551Z,28.66
2018-07-30T09:14:52.591Z,28.71
2018-07-30T09:15:52.495Z,28.77
2018-07-30T09:16:52.732Z,28.79
2018-07-30T09:17:52.620Z,28.86
2018-07-30T09:18:52.683Z,28.91
2018-07-30T09:19:52.474Z,28.98
2018-07-30T09:20:52.471Z,29.02
2018-07-30T09:21:52.461Z,29.02
2018-07-30T09:22:52.540Z,29.03
2018-07-30T09:23:52.577Z,29.06
2018-07-30T09:24:52.558Z,29.12
2018-07-30T09:25:52.619Z,29.17
2018-07-30T09:26:52.622Z,29.2
2018-07-30T09:27:52.609Z,29.22
2018-07-30T09:28:52.583Z,29.25
2018-07-30T09:29:52.700Z,29.26
2018-07-30T09:30:52.674Z,29.29
2018-07-30T09:31:52.519Z,29.3
2018-07-30T09:32:53.074Z,29.32
2018-07-30T09:33:52.516Z,29.17
2018-07-30T09:34:52.499Z,29.19
2018-07-30T09:35:52.548Z,29.19
2018-07-30T09:36:52.525Z,29.25
2018-07-30T09:37:52.539Z,29.29
2018-07-30T09:38:52.991Z,29.34
2018-07-30T09:39:52.621Z,29.43
2018-07-30T09:40:52.494Z,29.44
2018-07-30T09:41:52.534Z,29.48
2018-07-30T09:42:52.522Z,29.5
2018-07-30T09:43:52.651Z,29.6
2018-07-30T09:44:52.748Z,29.65
2018-07-30T09:45:52.543Z,29.67
2018-07-30T09:46:52.509Z,29.69
2018-07-30T09:47:52.536Z,29.69
2018-07-30T09:48:52.790Z,29.68
2018-07-30T09:49:52.572Z,29.72
2018-07-30T09:50:52.524Z,29.74
2018-07-30T09:51:52.518Z,29.75
2018-07-30T09:52:52.995Z,29.84
2018-07-30T09:53:52.612Z,29.82
2018-07-30T09:54:52.842Z,29.84
2018-07-30T09:55:52.573Z,29.82
2018-07-30T09:56:52.536Z,29.81
2018-07-30T09:57:52.505Z,29.88
2018-07-30T09:58:52.581Z,29.95
2018-07-30T09:59:52.516Z,29.87
2018-07-30T10:00:52.720Z,29.89
2018-07-30T10:01:52.637Z,30.01
2018-07-30T10:02:52.525Z,30.01
2018-07-30T10:03:52.538Z,30.12
2018-07-30T10:04:52.537Z,30.24
2018-07-30T10:05:52.534Z,30.33
2018-07-30T10:06:52.562Z,30.39
2018-07-30T10:07:52.547Z,30.47
2018-07-30T10:08:52.537Z,30.48
2018-07-30T10:09:52.568Z,30.56
2018-07-30T10:10:52.538Z,30.6
2018-07-30T10:11:52.596Z,30.6
2018-07-30T10:12:52.549Z,30.63
2018-07-30T10:13:52.577Z,30.63
2018-07-30T10:14:52.662Z,30.71
2018-07-30T10:15:52.560Z,30.82
2018-07-30T10:16:52.534Z,30.79
2018-07-30T10:17:52.681Z,30.84
2018-07-30T10:18:52.566Z,30.89
2018-07-30T10:19:52.572Z,30.93
2018-07-30T10:20:52.647Z,31.01
2018-07-30T10:21:52.571Z,31.01
2018-07-30T10:22:52.601Z,31.03
2018-07-30T10:23:52.567Z,31.06
2018-07-30T10:24:52.731Z,31.09
2018-07-30T10:25:52.554Z,31.12
2018-07-30T10:26:52.817Z,31.13
2018-07-30T10:27:52.708Z,31.19
2018-07-30T10:28:52.775Z,31.23
2018-07-30T10:29:52.767Z,31.25
2018-07-30T10:30:53.144Z,31.25
2018-07-30T10:31:53.219Z,31.25
2018-07-30T10:32:52.868Z,31.27
2018-07-30T10:33:52.823Z,31.26
2018-07-30T10:34:52.864Z,31.29
2018-07-30T10:35:53.198Z,31.33
2018-07-30T10:36:52.771Z,31.34
2018-07-30T10:37:52.818Z,31.38
2018-07-30T10:38:53.699Z,31.43
2018-07-30T10:39:52.875Z,31.46
2018-07-30T10:40:52.572Z,31.51
2018-07-30T10:41:53.299Z,31.54
2018-07-30T10:42:52.765Z,31.59
2018-07-30T10:43:52.590Z,31.63
2018-07-30T10:44:52.620Z,31.64
2018-07-30T10:45:52.665Z,31.71
2018-07-30T10:46:52.671Z,31.75
2018-07-30T10:47:52.690Z,31.8
2018-07-30T10:48:52.686Z,31.82
2018-07-30T10:49:52.605Z,31.87
2018-07-30T10:50:52.700Z,31.88
2018-07-30T10:51:52.679Z,31.89
2018-07-30T10:52:52.646Z,31.92
2018-07-30T10:53:52.814Z,31.93
2018-07-30T10:54:52.781Z,31.93
2018-07-30T10:55:53.053Z,31.99
2018-07-30T10:56:52.654Z,31.92
2018-07-30T10:57:52.661Z,31.93
2018-07-30T10:58:52.626Z,31.99
2018-07-30T10:59:52.581Z,31.91
2018-07-30T11:00:52.828Z,31.95
2018-07-30T11:01:52.644Z,31.89
2018-07-30T11:02:52.733Z,31.99
2018-07-30T11:03:52.607Z,31.99
2018-07-30T11:04:53.011Z,31.99
2018-07-30T11:05:52.675Z,32.02
2018-07-30T11:06:52.697Z,32.05
2018-07-30T11:07:53.190Z,32.14
2018-07-30T11:08:52.610Z,32.19
2018-07-30T11:09:52.663Z,32.15
2018-07-30T11:10:52.753Z,32.22
2018-07-30T11:11:52.949Z,32.23
2018-07-30T11:12:52.847Z,32.27
2018-07-30T11:13:52.978Z,32.32
2018-07-30T11:14:53.135Z,32.35
2018-07-30T11:15:52.637Z,32.4
2018-07-30T11:16:52.775Z,32.39
2018-07-30T11:17:52.692Z,32.39
2018-07-30T11:18:52.738Z,32.43
2018-07-30T11:19:53.762Z,32.47
2018-07-30T11:20:52.805Z,32.52
2018-07-30T11:21:52.613Z,32.56
2018-07-30T11:22:52.714Z,32.63
2018-07-30T11:23:52.736Z,32.64
2018-07-30T11:24:52.635Z,32.67
2018-07-30T11:25:52.645Z,32.61
2018-07-30T11:26:52.640Z,32.61
2018-07-30T11:27:52.737Z,32.63
2018-07-30T11:28:52.688Z,32.67
2018-07-30T11:29:52.659Z,32.73
2018-07-30T11:30:52.775Z,32.78
2018-07-30T11:31:52.631Z,32.78
2018-07-30T11:32:52.631Z,32.69
2018-07-30T11:33:52.828Z,32.74
2018-07-30T11:34:52.636Z,32.77
2018-07-30T11:35:52.739Z,32.8
2018-07-30T11:36:52.629Z,32.85
2018-07-30T11:37:52.945Z,32.91
2018-07-30T11:38:52.685Z,32.99
2018-07-30T11:39:52.710Z,33.05
2018-07-30T11:40:52.689Z,33.12
2018-07-30T11:41:52.781Z,33.16
2018-07-30T11:42:52.893Z,33.05
2018-07-30T11:43:52.680Z,33.11
2018-07-30T11:44:52.656Z,33.23
2018-07-30T11:45:52.754Z,33.23
2018-07-30T11:46:52.714Z,33.3
2018-07-30T11:47:52.766Z,33.33
2018-07-30T11:48:52.798Z,33.42
2018-07-30T11:49:52.876Z,33.42
2018-07-30T11:50:52.669Z,33.42
2018-07-30T11:51:52.940Z,33.3
2018-07-30T11:52:52.725Z,33.25
2018-07-30T11:53:53.225Z,33.29
2018-07-30T11:54:52.690Z,33.34
2018-07-30T11:55:52.691Z,33.39
2018-07-30T11:56:52.667Z,33.42
2018-07-30T11:57:52.674Z,33.45
2018-07-30T11:58:52.674Z,33.5
2018-07-30T11:59:52.727Z,33.55
2018-07-30T12:00:52.829Z,33.56
2018-07-30T12:01:52.956Z,33.66
2018-07-30T12:02:52.752Z,33.64
2018-07-30T12:03:52.790Z,33.7
2018-07-30T12:04:52.818Z,33.6
2018-07-30T12:05:52.840Z,33.56
2018-07-30T12:06:52.671Z,33.64
2018-07-30T12:07:52.698Z,33.67
2018-07-30T12:08:53.021Z,33.61
2018-07-30T12:09:52.710Z,33.63
2018-07-30T12:10:52.783Z,33.56
2018-07-30T12:11:52.677Z,33.56
2018-07-30T12:12:52.704Z,33.59
2018-07-30T12:13:52.732Z,33.61
2018-07-30T12:14:52.703Z,33.52
2018-07-30T12:15:52.779Z,33.6
2018-07-30T12:16:52.766Z,33.67
2018-07-30T12:17:52.730Z,33.78
2018-07-30T12:18:52.903Z,33.74
2018-07-30T12:19:52.768Z,33.74
2018-07-30T12:20:52.760Z,33.81
2018-07-30T12:21:53.094Z,33.87
2018-07-30T12:22:52.906Z,33.94
2018-07-30T12:23:52.845Z,34.01
2018-07-30T12:24:52.717Z,34.01
2018-07-30T12:25:52.890Z,34.07
2018-07-30T12:26:52.744Z,34.05
2018-07-30T12:27:52.755Z,34.05
2018-07-30T12:28:52.980Z,34.08
2018-07-30T12:29:52.860Z,34.11
2018-07-30T12:30:52.997Z,34.08
2018-07-30T12:31:52.781Z,34.14
2018-07-30T12:32:53.926Z,34.15
2018-07-30T12:33:52.721Z,34.18
2018-07-30T12:34:52.723Z,34.21
2018-07-30T12:35:52.740Z,34.19
2018-07-30T12:36:52.788Z,34.18
2018-07-30T12:37:52.731Z,34.19
2018-07-30T12:38:52.780Z,34.18
2018-07-30T12:39:52.738Z,34.18
2018-07-30T12:40:52.909Z,34.22
2018-07-30T12:41:53.118Z,34.28
2018-07-30T12:42:52.963Z,34.39
2018-07-30T12:43:52.803Z,34.32
2018-07-30T12:44:52.880Z,34.19
2018-07-30T12:45:52.888Z,34.18
2018-07-30T12:46:52.806Z,34.22
2018-07-30T12:47:52.747Z,34.23
2018-07-30T12:48:52.760Z,34.12
2018-07-30T12:49:52.751Z,34.04
2018-07-30T12:50:53.048Z,34.16
2018-07-30T12:51:52.833Z,34.23
2018-07-30T12:52:52.988Z,34.21
2018-07-30T12:53:52.880Z,34.22
2018-07-30T12:54:52.858Z,34.34